createdAt,value
2022-11-20T00:08:58.629Z,5.35
2022-11-20T00:18:59.071Z,5.40
2022-11-20T00:28:59.125Z,5.45
2022-11-20T00:38:59.202Z,5.45
2022-11-20T00:48:59.137Z,5.46
2022-11-20T00:58:59.138Z,5.49
2022-11-20T01:08:59.163Z,5.52
2022-11-20T01:18:59.132Z,5.54
2022-11-20T01:28:59.155Z,5.55
2022-11-20T01:38:59.315Z,5.57
2022-11-20T01:48:59.179Z,5.58
2022-11-20T01:58:59.173Z,5.57
2022-11-20T02:08:59.235Z,5.58
2022-11-20T02:18:59.201Z,5.58
2022-11-20T02:28:59.267Z,5.56
2022-11-20T02:38:59.301Z,5.54
2022-11-20T02:48:59.259Z,5.41
2022-11-20T02:58:59.293Z,5.04
2022-11-20T03:08:59.355Z,4.53
2022-11-20T03:18:59.298Z,4.16
2022-11-20T03:28:59.291Z,4.08
2022-11-20T03:38:59.322Z,4.20
2022-11-20T03:48:59.274Z,4.26
2022-11-20T03:58:59.325Z,4.27
2022-11-20T04:08:59.384Z,4.37
2022-11-20T04:18:59.403Z,4.51
2022-11-20T04:28:59.376Z,4.66
2022-11-20T04:38:59.390Z,4.78
2022-11-20T04:48:59.413Z,4.90
2022-11-20T04:58:59.415Z,4.98
2022-11-20T05:08:59.446Z,5.02
2022-11-20T05:18:59.419Z,5.05
2022-11-20T05:28:59.435Z,5.06
2022-11-20T05:39:01.800Z,5.07
2022-11-20T05:49:01.454Z,5.10
2022-11-20T05:59:01.471Z,5.13
2022-11-20T06:09:01.560Z,5.17
2022-11-20T06:19:01.515Z,5.21
2022-11-20T06:29:01.516Z,5.25
2022-11-20T06:39:01.584Z,5.29
2022-11-20T06:49:01.755Z,5.32
2022-11-20T06:59:01.554Z,5.25
2022-11-20T07:09:02.115Z,4.94
2022-11-20T07:19:02.587Z,4.50
2022-11-20T07:29:02.583Z,4.11
2022-11-20T07:39:02.667Z,3.87
2022-11-20T07:49:02.999Z,3.84
2022-11-20T07:59:03.644Z,4.03
2022-11-20T08:09:03.653Z,4.26
2022-11-20T08:19:03.627Z,4.52
2022-11-20T08:29:04.188Z,5.01
2022-11-20T08:39:04.723Z,5.61
2022-11-20T08:49:04.815Z,6.14
2022-11-20T09:09:07.211Z,7.32
2022-11-20T09:19:34.017Z,7.70
2022-11-20T09:29:09.728Z,7.83
2022-11-20T09:39:09.763Z,7.95
2022-11-20T09:49:09.793Z,7.93
2022-11-20T09:59:09.753Z,8.34
2022-11-20T10:09:09.836Z,9.34
2022-11-20T10:19:10.159Z,10.37
2022-11-20T10:29:09.787Z,11.09
2022-11-20T10:39:09.939Z,11.21
2022-11-20T10:49:09.825Z,10.76
2022-11-20T10:59:09.129Z,10.38
2022-11-20T11:09:08.838Z,10.13
2022-11-20T11:19:08.910Z,9.79
2022-11-20T11:29:08.894Z,9.37
2022-11-20T11:39:08.900Z,8.96
2022-11-20T11:49:08.967Z,8.72
2022-11-20T11:59:08.894Z,8.65
2022-11-20T12:09:08.937Z,8.73
2022-11-20T12:19:09.070Z,8.98
2022-11-20T12:29:09.334Z,9.19
2022-11-20T12:39:09.943Z,9.31
2022-11-20T12:49:10.050Z,9.37
2022-11-20T12:59:09.968Z,9.44
2022-11-20T13:09:10.062Z,9.36
2022-11-20T13:19:10.012Z,9.10
2022-11-20T13:29:13.973Z,8.69
2022-11-20T13:39:14.040Z,8.31
2022-11-20T13:49:14.059Z,8.12
2022-11-20T13:59:15.111Z,8.07
2022-11-20T14:09:15.089Z,8.02
2022-11-20T14:19:15.042Z,7.95
2022-11-20T14:29:15.110Z,7.88
2022-11-20T14:39:15.100Z,7.83
2022-11-20T14:49:15.121Z,7.79
2022-11-20T14:59:15.166Z,7.74
2022-11-20T15:09:15.106Z,7.63
2022-11-20T15:19:15.806Z,7.52
2022-11-20T15:29:18.047Z,7.39
2022-11-20T15:39:18.353Z,7.25
2022-11-20T15:49:19.578Z,7.05
2022-11-20T15:59:20.526Z,6.80
2022-11-20T16:09:20.872Z,6.63
2022-11-20T16:19:21.207Z,6.55
2022-11-20T16:29:21.345Z,6.53
2022-11-20T16:39:23.960Z,6.55
2022-11-20T16:49:24.356Z,6.60
2022-11-20T16:59:24.290Z,6.67
2022-11-20T17:09:24.263Z,6.73
2022-11-20T17:19:24.268Z,6.80
2022-11-20T17:29:24.377Z,6.86
2022-11-20T17:39:24.365Z,6.93
2022-11-20T17:49:24.337Z,6.99
2022-11-20T17:59:24.359Z,7.03
2022-11-20T18:09:24.447Z,7.06
2022-11-20T18:19:24.372Z,7.09
2022-11-20T18:29:24.835Z,7.14
2022-11-20T18:39:25.383Z,7.22
2022-11-20T18:49:25.364Z,7.32
2022-11-20T18:59:25.411Z,7.42
2022-11-20T19:09:26.242Z,7.54
2022-11-20T19:19:28.523Z,7.67
2022-11-20T19:29:30.168Z,7.79
2022-11-20T19:39:31.440Z,7.89
2022-11-20T19:49:31.480Z,7.96
2022-11-20T19:59:31.477Z,8.06
2022-11-20T20:09:33.387Z,8.20
2022-11-20T20:19:33.495Z,8.33
2022-11-20T20:29:33.586Z,8.45
2022-11-20T20:39:33.745Z,8.55
2022-11-20T20:49:33.511Z,8.63
2022-11-20T20:59:33.530Z,8.68
2022-11-20T21:09:33.639Z,8.72
2022-11-20T21:19:34.281Z,8.75
2022-11-20T21:29:34.599Z,8.77
2022-11-20T21:39:34.630Z,8.77
2022-11-20T21:49:34.597Z,8.78
2022-11-20T21:59:34.620Z,8.78
2022-11-20T22:09:34.616Z,8.78
2022-11-20T22:19:34.654Z,8.77
2022-11-20T22:29:34.655Z,8.74
2022-11-20T22:39:34.738Z,8.68
2022-11-20T22:49:34.673Z,8.62
2022-11-20T22:59:34.672Z,8.58
2022-11-20T23:09:35.023Z,8.56
2022-11-20T23:19:34.684Z,8.54
2022-11-20T23:29:34.712Z,8.53
2022-11-20T23:39:34.821Z,8.51
2022-11-20T23:49:34.766Z,8.49
2022-11-20T23:59:41.507Z,8.47
